Terminal Aerodrome Forecast
Issued by NWS

Home | Current Version | Previous Version | Text Only | Print | Product List | Glossary On
Versions: 1 2 3 4 5 6 7 8 9 10 11 12
000
FTUS42 TJSJ 242327
TAFJPS
TAF
TJPS 242327Z 2500/2524 05004KT P6SM FEW030
     FM251500 14012KT P6SM FEW030 SCT060
      AMD NOT SKED TIL 250300=

USA.gov is the U.S. government's official web portal to all federal, state and local government web resources and services.